Time;durP1;ratioP1;P1;durP2;ratioP2;P2;SDS_P1;SDS_P2;PMS_P1;PMS_P2;Temp;Humidity;BMP_temperature;BMP_pressure;BME280_temperature;BME280_humidity;BME280_pressure;Samples;Min_cycle;Max_cycle;Signal;HPM_P1;HPM_P2
2023/03/18 00:01:28;;;;;;;19.57;7.43;;;;;;;;;;4950427;29;20457;-77
2023/03/18 00:03:54;;;;;;;14.40;6.97;;;;;;;;;;4952027;28;20019;-77
2023/03/18 00:06:20;;;;;;;15.97;7.20;;;;;;;;;;4952238;28;20042;-77
2023/03/18 00:08:47;;;;;;;17.97;8.33;;;;;;;;;;4951006;28;20340;-78
2023/03/18 00:11:14;;;;;;;20.87;7.43;;;;;;;;;;4951225;28;20034;-77
2023/03/18 00:13:41;;;;;;;15.53;7.33;;;;;;;;;;4951999;28;20472;-77
2023/03/18 00:16:10;;;;;;;16.40;7.53;;;;;;;;;;4952480;28;20042;-78
2023/03/18 00:18:36;;;;;;;17.60;7.90;;;;;;;;;;4950610;28;20101;-77
2023/03/18 00:21:03;;;;;;;26.23;8.50;;;;;;;;;;4951105;28;20019;-78
2023/03/18 00:23:30;;;;;;;18.80;7.17;;;;;;;;;;4951142;28;20415;-78
2023/03/18 00:25:59;;;;;;;14.03;6.63;;;;;;;;;;4953019;28;20023;-78
2023/03/18 00:28:25;;;;;;;14.23;6.93;;;;;;;;;;4953252;28;20498;-77
2023/03/18 00:30:52;;;;;;;13.27;6.43;;;;;;;;;;4953584;28;20468;-77
2023/03/18 00:33:18;;;;;;;18.30;7.90;;;;;;;;;;4951440;29;20027;-76
2023/03/18 00:35:45;;;;;;;19.37;8.17;;;;;;;;;;4951463;28;20131;-77
2023/03/18 00:38:19;;;;;;;16.03;7.80;;;;;;;;;;4952604;28;20046;-77
2023/03/18 00:40:52;;;;;;;14.60;7.20;;;;;;;;;;4969295;28;20118;-77
2023/03/18 00:43:21;;;;;;;23.70;7.67;;;;;;;;;;4970201;28;20050;-77
2023/03/18 00:45:49;;;;;;;17.33;8.03;;;;;;;;;;4970153;28;20038;-77
2023/03/18 00:48:15;;;;;;;18.93;7.17;;;;;;;;;;4969680;28;20098;-77
2023/03/18 00:50:41;;;;;;;14.40;7.37;;;;;;;;;;4969783;28;20042;-77
2023/03/18 00:53:07;;;;;;;17.37;6.87;;;;;;;;;;4969764;28;20034;-75
2023/03/18 00:55:33;;;;;;;16.27;7.03;;;;;;;;;;4975067;28;20110;-77
2023/03/18 00:57:59;;;;;;;18.83;6.67;;;;;;;;;;4975742;28;20035;-78
2023/03/18 01:00:26;;;;;;;16.87;7.37;;;;;;;;;;4975821;28;20027;-77
2023/03/18 01:02:52;;;;;;;14.23;6.77;;;;;;;;;;4990450;28;20023;-78
2023/03/18 01:05:17;;;;;;;16.10;6.53;;;;;;;;;;4973986;28;20085;-76
2023/03/18 01:07:43;;;;;;;15.47;7.20;;;;;;;;;;4975000;28;20451;-77
2023/03/18 01:10:11;;;;;;;22.83;7.87;;;;;;;;;;4975356;28;20106;-78
2023/03/18 01:12:37;;;;;;;15.13;7.23;;;;;;;;;;4990815;28;20114;-78
2023/03/18 01:15:04;;;;;;;17.90;6.90;;;;;;;;;;4974897;28;20484;-77
2023/03/18 01:17:30;;;;;;;13.70;6.07;;;;;;;;;;4974639;28;20042;-77
2023/03/18 01:19:56;;;;;;;18.33;6.90;;;;;;;;;;4975366;28;20126;-77
2023/03/18 01:22:22;;;;;;;13.60;6.47;;;;;;;;;;4993616;28;20066;-77
2023/03/18 01:24:47;;;;;;;15.50;5.90;;;;;;;;;;4987680;28;20059;-76
2023/03/18 01:27:13;;;;;;;14.73;6.33;;;;;;;;;;4991826;28;20031;-77
2023/03/18 01:29:39;;;;;;;19.43;7.57;;;;;;;;;;4986461;28;20117;-77
2023/03/18 01:32:05;;;;;;;12.47;5.70;;;;;;;;;;4976566;28;20038;-76
2023/03/18 01:34:30;;;;;;;20.87;7.93;;;;;;;;;;4972908;28;20030;-76
2023/03/18 01:36:56;;;;;;;16.73;7.23;;;;;;;;;;4972633;28;20059;-76
2023/03/18 01:39:22;;;;;;;13.00;5.73;;;;;;;;;;4965203;28;20039;-77
2023/03/18 01:41:49;;;;;;;16.43;6.87;;;;;;;;;;4953161;28;20114;-78
2023/03/18 01:44:20;;;;;;;15.20;6.70;;;;;;;;;;4952974;29;20121;-77
2023/03/18 01:46:50;;;;;;;15.27;6.90;;;;;;;;;;4954508;28;20035;-78
2023/03/18 01:49:26;;;;;;;16.00;7.47;;;;;;;;;;4954306;28;20045;-77
2023/03/18 01:51:57;;;;;;;13.50;5.70;;;;;;;;;;4952643;29;20550;-78
2023/03/18 01:54:24;;;;;;;9.25;6.22;;;;;;;;;;4952992;28;20118;-77
2023/03/18 01:56:51;;;;;;;13.73;6.27;;;;;;;;;;4953415;28;20035;-77
2023/03/18 01:59:20;;;;;;;14.37;7.93;;;;;;;;;;4954600;28;20115;-78
2023/03/18 02:01:57;;;;;;;13.13;6.37;;;;;;;;;;4971234;28;20591;-78
2023/03/18 02:04:29;;;;;;;17.50;7.67;;;;;;;;;;4972038;28;20038;-77
2023/03/18 02:06:56;;;;;;;;;;;;;;;;;;4973270;28;20034;-77
2023/03/18 02:09:21;;;;;;;13.63;6.23;;;;;;;;;;4972961;28;20334;-76
2023/03/18 02:11:48;;;;;;;16.40;7.13;;;;;;;;;;4973063;28;20119;-77
2023/03/18 02:14:16;;;;;;;14.27;6.70;;;;;;;;;;4973084;28;20030;-77
2023/03/18 02:16:47;;;;;;;14.23;6.23;;;;;;;;;;4973210;28;20507;-77
2023/03/18 02:19:32;;;;;;;14.00;6.30;;;;;;;;;;4973540;28;20077;-77
2023/03/18 02:22:09;;;;;;;14.03;6.77;;;;;;;;;;4971518;28;20073;-77
2023/03/18 02:25:12;;;;;;;14.20;6.67;;;;;;;;;;4972818;28;20034;-77
2023/03/18 02:27:39;;;;;;;;;;;;;;;;;;4974163;28;20038;-77
2023/03/18 02:30:11;;;;;;;14.27;6.90;;;;;;;;;;4988449;28;19917;-76
2023/03/18 02:32:40;;;;;;;18.83;10.82;;;;;;;;;;4971688;28;20522;-77
2023/03/18 02:35:09;;;;;;;16.90;7.40;;;;;;;;;;4971506;28;20376;-77
2023/03/18 02:37:35;;;;;;;20.17;6.90;;;;;;;;;;4971059;28;20051;-75
2023/03/18 02:40:12;;;;;;;25.93;6.87;;;;;;;;;;4971639;28;20467;-76
2023/03/18 02:42:37;;;;;;;14.67;6.67;;;;;;;;;;4979728;28;20066;-76
2023/03/18 02:45:08;;;;;;;13.33;6.87;;;;;;;;;;4990737;28;20034;-77
2023/03/18 02:47:34;;;;;;;16.87;7.13;;;;;;;;;;4972708;28;20031;-77
2023/03/18 02:49:59;;;;;;;19.27;8.03;;;;;;;;;;4971449;28;20039;-77
2023/03/18 02:52:25;;;;;;;16.87;7.77;;;;;;;;;;4973389;28;20038;-77
2023/03/18 02:54:53;;;;;;;17.33;7.30;;;;;;;;;;4973215;28;20034;-76
2023/03/18 02:57:19;;;;;;;17.30;7.43;;;;;;;;;;4972836;28;20037;-77
2023/03/18 02:59:45;;;;;;;19.97;7.53;;;;;;;;;;4986879;28;20030;-76
2023/03/18 03:02:10;;;;;;;19.80;7.87;;;;;;;;;;4972529;28;20039;-76
2023/03/18 03:04:36;;;;;;;16.37;8.50;;;;;;;;;;4987156;28;20026;-78
2023/03/18 03:07:02;;;;;;;13.53;7.40;;;;;;;;;;4987482;28;20035;-77
2023/03/18 03:09:27;;;;;;;15.77;7.93;;;;;;;;;;4987053;28;20055;-77
2023/03/18 03:11:53;;;;;;;24.07;11.70;;;;;;;;;;4987159;28;20043;-77
2023/03/18 03:14:19;;;;;;;21.33;8.77;;;;;;;;;;4986933;28;20041;-76
2023/03/18 03:16:46;;;;;;;17.80;8.03;;;;;;;;;;4986430;28;20472;-77
2023/03/18 03:19:11;;;;;;;20.50;8.27;;;;;;;;;;4970882;28;20424;-77
2023/03/18 03:21:37;;;;;;;16.27;7.50;;;;;;;;;;4987201;28;20072;-77
2023/03/18 03:24:04;;;;;;;18.60;6.67;;;;;;;;;;4971380;28;20031;-77
2023/03/18 03:26:30;;;;;;;18.43;7.70;;;;;;;;;;4971002;28;20038;-76
2023/03/18 03:28:56;;;;;;;16.03;7.80;;;;;;;;;;4987610;28;20444;-77
2023/03/18 03:31:22;;;;;;;15.17;7.40;;;;;;;;;;4972756;28;20034;-77
2023/03/18 03:33:48;;;;;;;18.90;7.93;;;;;;;;;;4987479;28;20133;-77
2023/03/18 03:36:15;;;;;;;18.50;7.77;;;;;;;;;;4971956;28;20054;-77
2023/03/18 03:38:42;;;;;;;20.97;7.77;;;;;;;;;;4988076;28;20030;-75
2023/03/18 03:41:09;;;;;;;14.63;7.30;;;;;;;;;;4971094;28;20030;-75
2023/03/18 03:43:39;;;;;;;12.53;7.23;;;;;;;;;;4970291;28;20432;-75
2023/03/18 03:46:05;;;;;;;19.77;7.57;;;;;;;;;;4971270;28;20031;-74
2023/03/18 03:48:31;;;;;;;19.07;7.93;;;;;;;;;;4969981;28;20357;-75
2023/03/18 03:50:57;;;;;;;15.73;7.80;;;;;;;;;;4986569;28;20149;-75
2023/03/18 03:53:23;;;;;;;20.10;7.93;;;;;;;;;;4985963;28;20114;-75
2023/03/18 03:55:50;;;;;;;22.03;11.17;;;;;;;;;;4969349;28;20344;-75
2023/03/18 03:58:15;;;;;;;16.33;8.80;;;;;;;;;;4969538;28;20117;-76
2023/03/18 04:00:41;;;;;;;13.80;8.10;;;;;;;;;;4985984;28;20423;-75
2023/03/18 04:03:07;;;;;;;19.63;8.03;;;;;;;;;;4969563;28;20031;-75
2023/03/18 04:05:32;;;;;;;19.27;8.07;;;;;;;;;;4970963;28;20039;-75
2023/03/18 04:08:00;;;;;;;13.13;7.27;;;;;;;;;;4985455;28;20035;-75
2023/03/18 04:10:27;;;;;;;22.40;7.97;;;;;;;;;;4970778;28;20039;-75
2023/03/18 04:12:53;;;;;;;20.23;7.90;;;;;;;;;;4971630;28;20505;-75
2023/03/18 04:15:21;;;;;;;21.90;8.23;;;;;;;;;;4970861;28;20030;-76
2023/03/18 04:17:48;;;;;;;19.27;8.13;;;;;;;;;;4969256;28;20022;-74
2023/03/18 04:20:14;;;;;;;16.50;8.17;;;;;;;;;;4969423;28;20644;-75
2023/03/18 04:22:40;;;;;;;18.97;8.30;;;;;;;;;;4985616;28;20464;-74
2023/03/18 04:25:07;;;;;;;21.60;8.33;;;;;;;;;;4971182;28;20658;-75
2023/03/18 04:27:33;;;;;;;18.83;8.80;;;;;;;;;;4970714;28;20663;-76
2023/03/18 04:29:59;;;;;;;37.07;9.13;;;;;;;;;;4974966;28;20854;-75
2023/03/18 04:32:25;;;;;;;21.40;8.87;;;;;;;;;;4976049;28;20039;-75
2023/03/18 04:34:50;;;;;;;23.73;8.27;;;;;;;;;;4973989;28;20161;-75
2023/03/18 04:37:18;;;;;;;18.53;9.03;;;;;;;;;;4989579;28;20483;-75
2023/03/18 04:39:46;;;;;;;20.07;8.47;;;;;;;;;;4962346;28;20039;-76
2023/03/18 04:42:12;;;;;;;18.63;6.77;;;;;;;;;;4953829;28;20028;-75
2023/03/18 04:44:37;;;;;;;16.40;8.00;;;;;;;;;;4953478;28;20341;-73
2023/03/18 04:47:03;;;;;;;23.63;9.70;;;;;;;;;;4953308;28;20031;-75
2023/03/18 04:49:29;;;;;;;23.47;7.70;;;;;;;;;;4955338;28;20059;-78
2023/03/18 04:51:55;;;;;;;18.63;8.27;;;;;;;;;;4955922;28;20046;-77
2023/03/18 04:54:20;;;;;;;13.90;8.33;;;;;;;;;;4954390;28;20502;-77
2023/03/18 04:56:46;;;;;;;28.23;9.70;;;;;;;;;;4955917;28;20051;-78
2023/03/18 04:59:12;;;;;;;20.90;9.00;;;;;;;;;;4954261;28;20035;-77
2023/03/18 05:01:37;;;;;;;18.40;8.43;;;;;;;;;;4955338;28;20083;-78
2023/03/18 05:04:03;;;;;;;22.97;9.07;;;;;;;;;;4954109;28;20027;-77
2023/03/18 05:06:30;;;;;;;17.33;7.97;;;;;;;;;;4954328;29;20027;-78
2023/03/18 05:08:57;;;;;;;24.23;10.90;;;;;;;;;;4954026;29;20042;-77
2023/03/18 05:11:24;;;;;;;29.60;10.63;;;;;;;;;;4953945;28;20661;-77
2023/03/18 05:13:50;;;;;;;20.80;9.47;;;;;;;;;;4953463;28;20118;-77
2023/03/18 05:16:17;;;;;;;15.97;8.57;;;;;;;;;;4955046;28;20042;-76
2023/03/18 05:18:43;;;;;;;20.70;9.53;;;;;;;;;;4953546;28;20027;-77
2023/03/18 05:21:09;;;;;;;20.10;9.33;;;;;;;;;;4954936;28;20160;-77
2023/03/18 05:23:35;;;;;;;27.63;11.37;;;;;;;;;;4953705;28;20059;-76
2023/03/18 05:26:02;;;;;;;23.20;10.10;;;;;;;;;;4953906;29;20033;-77
2023/03/18 05:28:28;;;;;;;21.00;9.90;;;;;;;;;;4954904;28;20031;-77
2023/03/18 05:30:54;;;;;;;26.07;10.83;;;;;;;;;;4954980;28;20031;-77
2023/03/18 05:33:19;;;;;;;25.17;9.80;;;;;;;;;;4953536;28;20059;-77
2023/03/18 05:35:45;;;;;;;19.33;8.80;;;;;;;;;;4954664;28;20110;-76
2023/03/18 05:38:11;;;;;;;17.93;8.67;;;;;;;;;;4953448;29;20035;-77
2023/03/18 05:40:38;;;;;;;20.77;9.53;;;;;;;;;;4968804;28;20117;-77
2023/03/18 05:43:04;;;;;;;23.13;9.37;;;;;;;;;;4972764;28;20376;-78
2023/03/18 05:45:29;;;;;;;17.70;9.20;;;;;;;;;;4990057;28;20030;-77
2023/03/18 05:47:56;;;;;;;21.67;8.83;;;;;;;;;;4985098;28;20035;-76
2023/03/18 05:50:35;;;;;;;26.57;10.67;;;;;;;;;;4972360;28;20475;-78
2023/03/18 05:53:02;;;;;;;21.73;10.00;;;;;;;;;;4972100;28;20448;-78
2023/03/18 05:55:28;;;;;;;23.63;9.67;;;;;;;;;;4972382;28;20034;-76
2023/03/18 05:57:57;;;;;;;23.73;10.27;;;;;;;;;;4972220;28;20038;-77
2023/03/18 06:00:24;;;;;;;20.43;9.70;;;;;;;;;;4973876;28;20027;-77
2023/03/18 06:02:53;;;;;;;17.50;9.47;;;;;;;;;;4972863;28;20046;-76
2023/03/18 06:05:20;;;;;;;27.43;12.30;;;;;;;;;;4972730;28;20030;-78
2023/03/18 06:07:46;;;;;;;24.47;11.53;;;;;;;;;;4972585;28;20078;-77
2023/03/18 06:10:11;;;;;;;23.27;9.87;;;;;;;;;;4972450;28;20427;-77
2023/03/18 06:12:38;;;;;;;24.03;10.67;;;;;;;;;;4972342;28;20035;-77
2023/03/18 06:15:07;;;;;;;24.93;10.57;;;;;;;;;;4972470;28;20035;-78
2023/03/18 06:17:32;;;;;;;25.97;10.17;;;;;;;;;;4975316;28;20037;-79
2023/03/18 06:19:58;;;;;;;31.47;11.43;;;;;;;;;;4990866;28;20035;-77
2023/03/18 06:22:25;;;;;;;24.73;10.77;;;;;;;;;;4978330;28;20026;-77
2023/03/18 06:24:50;;;;;;;27.60;13.37;;;;;;;;;;4982844;28;20031;-76
2023/03/18 06:27:16;;;;;;;23.77;11.30;;;;;;;;;;4982483;28;20535;-79
2023/03/18 06:29:42;;;;;;;22.23;10.70;;;;;;;;;;4981427;28;20035;-78
2023/03/18 06:32:08;;;;;;;25.40;10.37;;;;;;;;;;4976524;28;20061;-77
2023/03/18 06:34:35;;;;;;;21.03;9.87;;;;;;;;;;4973461;28;20049;-78
2023/03/18 06:37:01;;;;;;;24.30;10.77;;;;;;;;;;4972463;28;20054;-76
2023/03/18 06:39:27;;;;;;;24.80;9.87;;;;;;;;;;4972687;28;20031;-75
2023/03/18 06:41:53;;;;;;;17.70;8.87;;;;;;;;;;4973997;28;20055;-76
2023/03/18 06:44:20;;;;;;;20.37;9.97;;;;;;;;;;4972842;28;20121;-76
2023/03/18 06:46:46;;;;;;;22.70;10.63;;;;;;;;;;4971932;28;20046;-76
2023/03/18 06:49:11;;;;;;;19.80;10.97;;;;;;;;;;4973144;28;20129;-76
2023/03/18 06:51:37;;;;;;;16.97;8.87;;;;;;;;;;4972386;28;20516;-76
2023/03/18 06:54:04;;;;;;;21.00;9.00;;;;;;;;;;4973140;28;20426;-79
2023/03/18 06:56:36;;;;;;;20.47;9.30;;;;;;;;;;4971930;28;20070;-78
2023/03/18 06:59:02;;;;;;;21.13;9.13;;;;;;;;;;4957517;28;20395;-77
2023/03/18 07:01:31;;;;;;;17.27;10.07;;;;;;;;;;4975614;28;20039;-78
2023/03/18 07:03:57;;;;;;;24.87;10.70;;;;;;;;;;4974005;28;20032;-78
2023/03/18 07:06:23;;;;;;;28.33;12.13;;;;;;;;;;4973117;28;20054;-76
2023/03/18 07:08:49;;;;;;;22.43;11.10;;;;;;;;;;4972310;28;20482;-78
2023/03/18 07:11:15;;;;;;;29.00;12.00;;;;;;;;;;4973652;28;20034;-78
2023/03/18 07:13:41;;;;;;;24.60;11.30;;;;;;;;;;4972322;28;20046;-77
2023/03/18 07:16:06;;;;;;;26.67;10.93;;;;;;;;;;4972542;28;20105;-78
2023/03/18 07:18:32;;;;;;;19.87;9.90;;;;;;;;;;4973570;28;20096;-78
2023/03/18 07:20:58;;;;;;;22.37;10.27;;;;;;;;;;4982178;28;20030;-76
2023/03/18 07:23:24;;;;;;;26.17;12.43;;;;;;;;;;4984000;28;20074;-77
2023/03/18 07:25:50;;;;;;;25.03;11.17;;;;;;;;;;4973394;28;20034;-77
2023/03/18 07:28:15;;;;;;;29.00;12.37;;;;;;;;;;4975315;28;20041;-77
2023/03/18 07:30:41;;;;;;;28.73;12.40;;;;;;;;;;4975045;28;20420;-78
2023/03/18 07:33:07;;;;;;;26.17;11.70;;;;;;;;;;4973750;28;20039;-78
2023/03/18 07:35:33;;;;;;;19.33;9.70;;;;;;;;;;4974496;28;20030;-78
2023/03/18 07:37:59;;;;;;;19.70;10.03;;;;;;;;;;4974228;28;20058;-77
2023/03/18 07:40:24;;;;;;;21.80;9.60;;;;;;;;;;4974204;28;20037;-78
2023/03/18 07:42:50;;;;;;;24.57;10.83;;;;;;;;;;4990323;28;20126;-77
2023/03/18 07:45:17;;;;;;;21.87;10.07;;;;;;;;;;4990010;28;20031;-77
2023/03/18 07:47:42;;;;;;;22.27;9.77;;;;;;;;;;4973165;28;20035;-77
2023/03/18 07:50:09;;;;;;;14.47;8.60;;;;;;;;;;4987078;28;20031;-78
2023/03/18 07:52:34;;;;;;;22.73;8.63;;;;;;;;;;4986681;28;20030;-77
2023/03/18 07:55:00;;;;;;;16.17;8.67;;;;;;;;;;4971463;28;20418;-78
2023/03/18 07:57:26;;;;;;;24.50;9.00;;;;;;;;;;4972235;28;20515;-77
2023/03/18 07:59:52;;;;;;;18.53;7.73;;;;;;;;;;4986388;28;20129;-78
2023/03/18 08:02:20;;;;;;;16.27;8.20;;;;;;;;;;4987942;28;20066;-77
2023/03/18 08:04:46;;;;;;;18.73;7.30;;;;;;;;;;4970962;28;20035;-78
2023/03/18 08:07:12;;;;;;;14.07;7.10;;;;;;;;;;4987185;28;20045;-78
2023/03/18 08:09:38;;;;;;;18.40;8.30;;;;;;;;;;4971108;28;20041;-77
2023/03/18 08:12:03;;;;;;;15.07;5.63;;;;;;;;;;4986235;28;20026;-77
2023/03/18 08:14:30;;;;;;;13.43;6.13;;;;;;;;;;4986808;28;20091;-76
2023/03/18 08:16:56;;;;;;;13.47;5.80;;;;;;;;;;4971164;28;20514;-77
2023/03/18 08:19:21;;;;;;;9.23;5.07;;;;;;;;;;4986998;28;20037;-78
2023/03/18 08:21:47;;;;;;;14.33;5.30;;;;;;;;;;4972645;28;20027;-78
2023/03/18 08:24:16;;;;;;;10.30;5.33;;;;;;;;;;4988889;28;20502;-79
2023/03/18 08:26:41;;;;;;;8.17;5.07;;;;;;;;;;4972123;28;20039;-80
2023/03/18 08:29:07;;;;;;;16.37;6.23;;;;;;;;;;4971272;28;20092;-77
2023/03/18 08:31:34;;;;;;;15.60;5.47;;;;;;;;;;4988172;28;22013;-79
2023/03/18 08:34:03;;;;;;;12.20;4.60;;;;;;;;;;4973113;28;20039;-78
2023/03/18 08:36:34;;;;;;;8.97;4.90;;;;;;;;;;4992306;28;20050;-78
2023/03/18 08:39:00;;;;;;;14.85;5.47;;;;;;;;;;4973954;28;20046;-78
2023/03/18 08:41:26;;;;;;;13.77;5.80;;;;;;;;;;4988070;28;20031;-79
2023/03/18 08:43:54;;;;;;;10.95;5.25;;;;;;;;;;4971791;28;20390;-79
2023/03/18 08:46:19;;;;;;;9.73;5.30;;;;;;;;;;4989250;28;20133;-79
2023/03/18 08:48:45;;;;;;;9.65;5.18;;;;;;;;;;4973631;28;20162;-78
2023/03/18 08:51:12;;;;;;;9.52;4.47;;;;;;;;;;4970728;28;20031;-76
2023/03/18 08:53:37;;;;;;;12.02;5.82;;;;;;;;;;4986138;28;20034;-79
2023/03/18 08:56:05;;;;;;;9.93;5.20;;;;;;;;;;4971243;28;20101;-78
2023/03/18 08:58:31;;;;;;;11.00;4.55;;;;;;;;;;4986152;28;20038;-78
2023/03/18 09:00:57;;;;;;;10.98;5.25;;;;;;;;;;4969615;28;20138;-79
2023/03/18 09:03:23;;;;;;;11.05;4.95;;;;;;;;;;4986001;28;20023;-77
2023/03/18 09:05:51;;;;;;;14.63;6.22;;;;;;;;;;4985388;28;20026;-78
2023/03/18 09:08:17;;;;;;;9.40;5.22;;;;;;;;;;4970789;28;20464;-79
2023/03/18 09:10:44;;;;;;;9.07;5.20;;;;;;;;;;4985629;28;20031;-79
2023/03/18 09:13:10;;;;;;;13.93;5.38;;;;;;;;;;4968915;28;20042;-78
2023/03/18 09:15:35;;;;;;;7.13;4.57;;;;;;;;;;4987802;28;20050;-76
2023/03/18 09:18:01;;;;;;;13.20;5.43;;;;;;;;;;4974087;28;20054;-78
2023/03/18 09:20:27;;;;;;;9.70;6.00;;;;;;;;;;4989260;28;20042;-77
2023/03/18 09:22:53;;;;;;;11.57;5.35;;;;;;;;;;4989041;28;20029;-77
2023/03/18 09:25:19;;;;;;;8.90;5.43;;;;;;;;;;4974158;28;20034;-78
2023/03/18 09:27:44;;;;;;;14.05;6.05;;;;;;;;;;4989243;28;20383;-79
2023/03/18 09:30:10;;;;;;;9.93;5.90;;;;;;;;;;4972818;28;20030;-77
2023/03/18 09:32:36;;;;;;;13.32;6.10;;;;;;;;;;4988596;28;20039;-77
2023/03/18 09:35:02;;;;;;;17.75;7.70;;;;;;;;;;4972373;28;20261;-77
2023/03/18 09:37:28;;;;;;;10.07;5.68;;;;;;;;;;4989036;28;20424;-78
2023/03/18 09:39:53;;;;;;;13.70;6.38;;;;;;;;;;4973790;28;20026;-79
2023/03/18 09:42:40;;;;;;;10.50;5.38;;;;;;;;;;4989009;28;20601;-77
2023/03/18 09:45:20;;;;;;;8.15;4.82;;;;;;;;;;4972990;28;20034;-79
2023/03/18 09:48:28;;;;;;;18.58;7.32;;;;;;;;;;4973168;28;20026;-77
2023/03/18 09:51:05;;;;;;;10.25;5.68;;;;;;;;;;4990948;28;20054;-76
2023/03/18 09:53:38;;;;;;;17.45;6.95;;;;;;;;;;4973525;28;20031;-77
2023/03/18 09:56:07;;;;;;;9.68;5.65;;;;;;;;;;4974792;28;20085;-78
2023/03/18 09:58:56;;;;;;;8.98;5.30;;;;;;;;;;4972525;28;20089;-78
2023/03/18 10:01:25;;;;;;;14.52;8.15;;;;;;;;;;4988568;28;20530;-78
2023/03/18 10:04:01;;;;;;;13.13;5.88;;;;;;;;;;4972822;28;20030;-77
2023/03/18 10:06:27;;;;;;;8.80;5.10;;;;;;;;;;4974225;28;20384;-78
2023/03/18 10:09:04;;;;;;;9.45;5.32;;;;;;;;;;4973512;28;20041;-78
2023/03/18 10:11:40;;;;;;;12.73;6.50;;;;;;;;;;4972706;28;20104;-78
2023/03/18 10:14:41;;;;;;;8.27;5.35;;;;;;;;;;4972656;28;20034;-78
2023/03/18 10:17:21;;;;;;;11.18;6.05;;;;;;;;;;4973776;28;20460;-78
2023/03/18 10:20:16;;;;;;;10.93;5.90;;;;;;;;;;4971814;28;20426;-78
2023/03/18 10:23:03;;;;;;;12.23;6.13;;;;;;;;;;4958665;28;20041;-78
2023/03/18 10:25:55;;;;;;;10.00;5.60;;;;;;;;;;4973228;28;20538;-78
2023/03/18 10:29:07;;;;;;;9.73;5.90;;;;;;;;;;4971963;28;20483;-78
2023/03/18 10:31:41;;;;;;;13.48;5.75;;;;;;;;;;4971639;28;20272;-78
2023/03/18 10:34:31;;;;;;;12.45;5.57;;;;;;;;;;4971601;28;20034;-80
2023/03/18 10:37:22;;;;;;;11.18;5.53;;;;;;;;;;4972511;28;20138;-79
2023/03/18 10:39:49;;;;;;;12.87;6.00;;;;;;;;;;4962202;28;20027;-78
2023/03/18 10:42:22;;;;;;;9.90;6.05;;;;;;;;;;4954005;29;20495;-78
2023/03/18 10:44:49;;;;;;;15.25;6.65;;;;;;;;;;4955547;28;20035;-78
2023/03/18 10:47:23;;;;;;;9.45;5.35;;;;;;;;;;4956298;28;20391;-77
2023/03/18 10:50:16;;;;;;;12.40;6.35;;;;;;;;;;4954096;28;20126;-77
2023/03/18 10:52:51;;;;;;;12.52;5.60;;;;;;;;;;4953675;28;20078;-77
2023/03/18 10:55:22;;;;;;;14.70;5.80;;;;;;;;;;4952061;28;20122;-78
2023/03/18 10:57:49;;;;;;;16.60;7.10;;;;;;;;;;4952904;28;20019;-77
2023/03/18 11:00:36;;;;;;;11.75;6.40;;;;;;;;;;4952976;28;20047;-77
2023/03/18 11:03:04;;;;;;;14.43;5.93;;;;;;;;;;4951905;29;20041;-78
2023/03/18 11:05:35;;;;;;;11.50;5.95;;;;;;;;;;4952231;29;20030;-77
2023/03/18 11:08:04;;;;;;;8.45;5.65;;;;;;;;;;4951636;28;20126;-79
2023/03/18 11:10:39;;;;;;;13.10;5.60;;;;;;;;;;4951766;28;20031;-78
2023/03/18 11:13:05;;;;;;;12.65;6.38;;;;;;;;;;4952088;28;20047;-78
2023/03/18 11:15:38;;;;;;;12.68;6.50;;;;;;;;;;4951892;28;20416;-78
2023/03/18 11:18:04;;;;;;;11.45;5.97;;;;;;;;;;4952221;28;20035;-78
2023/03/18 11:20:46;;;;;;;11.57;5.80;;;;;;;;;;4952493;28;20098;-80
2023/03/18 11:23:19;;;;;;;10.88;6.18;;;;;;;;;;4955791;28;20126;-79
2023/03/18 11:25:47;;;;;;;11.88;6.22;;;;;;;;;;4955257;28;20086;-78
2023/03/18 11:28:25;;;;;;;12.98;6.38;;;;;;;;;;4968224;28;20027;-77
2023/03/18 11:30:55;;;;;;;14.27;7.03;;;;;;;;;;4966887;28;20031;-78
2023/03/18 11:33:29;;;;;;;16.98;7.45;;;;;;;;;;4965994;28;20123;-77
2023/03/18 11:35:57;;;;;;;12.82;6.80;;;;;;;;;;4956569;29;20400;-77
2023/03/18 11:38:28;;;;;;;15.10;6.90;;;;;;;;;;4952533;28;20086;-79
2023/03/18 11:41:36;;;;;;;14.63;6.93;;;;;;;;;;4971574;28;20073;-78
2023/03/18 11:44:07;;;;;;;15.15;7.70;;;;;;;;;;4972728;28;20039;-79
2023/03/18 11:46:58;;;;;;;13.20;7.17;;;;;;;;;;4973659;28;20094;-77
2023/03/18 11:49:27;;;;;;;11.05;6.90;;;;;;;;;;4980545;28;20035;-78
2023/03/18 11:52:27;;;;;;;15.05;7.75;;;;;;;;;;4973271;28;20039;-79
2023/03/18 11:55:14;;;;;;;9.27;6.38;;;;;;;;;;4974050;28;20026;-78
2023/03/18 11:58:07;;;;;;;13.55;7.38;;;;;;;;;;4976249;28;20401;-79
2023/03/18 12:01:00;;;;;;;12.65;6.78;;;;;;;;;;4971253;28;20019;-77
2023/03/18 12:03:51;;;;;;;13.43;7.78;;;;;;;;;;4986984;28;20332;-78
2023/03/18 12:06:23;;;;;;;15.65;8.82;;;;;;;;;;4970496;28;20023;-77
2023/03/18 12:09:08;;;;;;;17.85;8.43;;;;;;;;;;4970764;28;20038;-79
2023/03/18 12:11:40;;;;;;;17.70;8.85;;;;;;;;;;4970669;28;20053;-78
2023/03/18 12:14:30;;;;;;;16.58;8.77;;;;;;;;;;4971656;28;20031;-78
2023/03/18 12:17:18;;;;;;;19.73;9.65;;;;;;;;;;4971325;28;20044;-77
2023/03/18 12:20:14;;;;;;;15.00;8.60;;;;;;;;;;4970629;28;20035;-78
2023/03/18 12:22:49;;;;;;;15.05;8.25;;;;;;;;;;4971590;28;20106;-78
2023/03/18 12:25:34;;;;;;;12.13;8.45;;;;;;;;;;4971035;28;20560;-78
2023/03/18 12:28:23;;;;;;;15.80;9.50;;;;;;;;;;4970004;28;20023;-77
2023/03/18 12:31:09;;;;;;;19.40;8.93;;;;;;;;;;4970066;28;20082;-78
2023/03/18 12:33:47;;;;;;;18.60;8.95;;;;;;;;;;4972113;28;20031;-78
2023/03/18 12:36:26;;;;;;;15.73;8.80;;;;;;;;;;4969881;28;20044;-78
2023/03/18 12:39:38;;;;;;;16.83;8.40;;;;;;;;;;4966687;28;20359;-78
2023/03/18 12:42:09;;;;;;;22.15;9.52;;;;;;;;;;4950505;29;20015;-79
2023/03/18 12:44:41;;;;;;;21.90;9.77;;;;;;;;;;4950594;29;20474;-79
2023/03/18 12:47:35;;;;;;;22.95;9.40;;;;;;;;;;4950129;29;20038;-79
2023/03/18 12:50:19;;;;;;;18.27;9.60;;;;;;;;;;4952082;28;20384;-79
2023/03/18 12:53:01;;;;;;;16.27;9.73;;;;;;;;;;4954279;28;20065;-78
2023/03/18 12:55:39;;;;;;;18.75;9.18;;;;;;;;;;4955650;28;20049;-78
2023/03/18 12:58:09;;;;;;;19.15;9.90;;;;;;;;;;4955467;28;20098;-79
2023/03/18 13:00:34;;;;;;;18.40;10.27;;;;;;;;;;4954643;29;20126;-79
2023/03/18 13:03:23;;;;;;;16.05;9.38;;;;;;;;;;4953782;29;20162;-77
2023/03/18 13:05:57;;;;;;;18.35;10.40;;;;;;;;;;4953994;29;20492;-78
2023/03/18 13:08:47;;;;;;;17.38;9.45;;;;;;;;;;4954299;28;20063;-79
2023/03/18 13:11:49;;;;;;;16.27;8.75;;;;;;;;;;4955072;28;20046;-78
2023/03/18 13:14:21;;;;;;;;;;;;;;;;;;4954123;28;20090;-78
2023/03/18 13:16:48;;;;;;;17.10;8.70;;;;;;;;;;4954302;28;19910;-78
2023/03/18 13:19:17;;;;;;;17.20;8.43;;;;;;;;;;4958305;28;20034;-79
2023/03/18 13:21:50;;;;;;;17.35;8.90;;;;;;;;;;4957826;28;20031;-78
2023/03/18 13:24:36;;;;;;;23.02;8.95;;;;;;;;;;4956150;29;20038;-79
2023/03/18 13:27:18;;;;;;;20.88;9.02;;;;;;;;;;4957015;29;20027;-78
2023/03/18 13:30:00;;;;;;;16.40;9.15;;;;;;;;;;4959160;28;20031;-78
2023/03/18 13:32:29;;;;;;;14.82;8.00;;;;;;;;;;4956938;28;20259;-79
2023/03/18 13:35:16;;;;;;;20.05;8.98;;;;;;;;;;4957533;29;20023;-79
2023/03/18 13:38:09;;;;;;;26.40;9.50;;;;;;;;;;4958843;29;20383;-78
2023/03/18 13:41:13;;;;;;;21.08;11.65;;;;;;;;;;4960478;29;20027;-79
2023/03/18 13:43:48;;;;;;;14.40;8.30;;;;;;;;;;4902045;29;20024;-77
2023/03/18 13:46:26;;;;;;;17.67;9.55;;;;;;;;;;4954835;28;20039;-79
2023/03/18 13:48:57;;;;;;;17.27;9.05;;;;;;;;;;4956744;28;20027;-77
2023/03/18 13:51:22;;;;;;;;;;;;;;;;;;4954916;28;20031;-78
2023/03/18 13:53:50;;;;;;;15.63;8.90;;;;;;;;;;4956266;28;19922;-78
2023/03/18 13:56:41;;;;;;;15.77;9.18;;;;;;;;;;4954175;28;20039;-78
2023/03/18 13:59:32;;;;;;;18.00;9.88;;;;;;;;;;4954032;28;20357;-77
2023/03/18 14:02:17;;;;;;;15.05;9.18;;;;;;;;;;4960459;28;20105;-78
2023/03/18 14:04:49;;;;;;;17.80;9.40;;;;;;;;;;4973478;28;20038;-78
2023/03/18 14:07:22;;;;;;;20.27;10.32;;;;;;;;;;4971469;28;20037;-78
2023/03/18 14:10:26;;;;;;;17.05;9.60;;;;;;;;;;4973405;28;20027;-78
2023/03/18 14:12:52;;;;;;;14.93;8.70;;;;;;;;;;4975909;28;20419;-79
2023/03/18 14:15:37;;;;;;;18.45;9.38;;;;;;;;;;4975836;28;20039;-78
2023/03/18 14:18:23;;;;;;;15.35;8.95;;;;;;;;;;4975435;28;20451;-79
2023/03/18 14:20:57;;;;;;;16.75;9.85;;;;;;;;;;4975339;28;20118;-77
2023/03/18 14:23:38;;;;;;;15.82;10.15;;;;;;;;;;4974487;28;20070;-78
2023/03/18 14:26:25;;;;;;;21.95;10.32;;;;;;;;;;4973138;28;20083;-78
2023/03/18 14:29:06;;;;;;;18.60;10.50;;;;;;;;;;4973605;28;20042;-77
2023/03/18 14:31:53;;;;;;;15.77;9.38;;;;;;;;;;4974609;28;20030;-79
2023/03/18 14:34:19;;;;;;;16.63;9.57;;;;;;;;;;4989000;28;20054;-78
2023/03/18 14:36:54;;;;;;;20.60;9.18;;;;;;;;;;4974493;28;20058;-78
2023/03/18 14:39:29;;;;;;;17.42;9.32;;;;;;;;;;4972283;28;20070;-79
2023/03/18 14:41:58;;;;;;;16.65;9.55;;;;;;;;;;4975197;28;20027;-79
2023/03/18 14:44:47;;;;;;;17.73;9.38;;;;;;;;;;4973727;28;20176;-79
2023/03/18 14:47:39;;;;;;;21.10;10.70;;;;;;;;;;4973996;28;20399;-79
2023/03/18 14:50:23;;;;;;;21.00;11.00;;;;;;;;;;4973880;28;20147;-78
2023/03/18 14:52:57;;;;;;;27.58;14.73;;;;;;;;;;4973783;28;20023;-78
2023/03/18 14:55:29;;;;;;;22.25;11.07;;;;;;;;;;4974579;28;20027;-78